createdAt,value
2022-07-29T00:01:19.646Z,24.70
2022-07-29T00:16:24.338Z,24.60
2022-07-29T00:31:28.819Z,24.40
2022-07-29T00:46:33.498Z,24.30
2022-07-29T01:01:38.055Z,24.30
2022-07-29T01:16:48.104Z,24.20
2022-07-29T01:32:01.070Z,24.10
2022-07-29T01:47:13.816Z,23.90
2022-07-29T02:02:20.204Z,24.00
2022-07-29T02:17:29.677Z,24.00
2022-07-29T02:32:37.345Z,23.90
2022-07-29T02:47:49.544Z,23.90
2022-07-29T03:02:57.944Z,23.80
2022-07-29T03:18:03.003Z,23.70
2022-07-29T03:33:13.230Z,23.50
2022-07-29T03:48:22.374Z,23.50
2022-07-29T04:03:26.889Z,23.00
2022-07-29T04:18:31.471Z,23.30
2022-07-29T04:33:35.850Z,23.30
2022-07-29T04:48:40.319Z,23.30
2022-07-29T05:03:44.983Z,23.20
2022-07-29T05:18:49.403Z,23.20
2022-07-29T05:33:53.841Z,23.20
2022-07-29T05:48:58.355Z,23.20
2022-07-29T06:04:02.968Z,23.10
2022-07-29T06:19:07.596Z,23.10
2022-07-29T06:34:14.497Z,22.80
2022-07-29T06:49:19.775Z,23.10
2022-07-29T07:04:24.344Z,22.90
2022-07-29T07:19:28.829Z,23.30
2022-07-29T07:34:33.260Z,23.10
2022-07-29T07:49:37.737Z,23.40
2022-07-29T08:04:42.336Z,23.70
2022-07-29T08:19:48.792Z,23.50
2022-07-29T08:34:53.266Z,23.90
2022-07-29T08:49:57.772Z,23.90
2022-07-29T09:05:03.611Z,23.90
2022-07-29T09:20:12.917Z,24.20
2022-07-29T09:35:18.913Z,24.30
2022-07-29T09:50:26.594Z,24.60
2022-07-29T10:05:35.945Z,24.70
2022-07-29T10:20:42.289Z,25.00
2022-07-29T10:36:04.169Z,25.10
2022-07-29T10:51:11.829Z,25.50
2022-07-29T11:06:17.907Z,25.60
2022-07-29T11:22:05.454Z,25.90
2022-07-29T11:37:23.366Z,25.70
2022-07-29T11:52:49.417Z,26.10
2022-07-29T12:07:54.538Z,26.50
2022-07-29T12:22:59.038Z,27.00
2022-07-29T12:38:04.281Z,27.20
2022-07-29T12:53:13.170Z,27.20
2022-07-29T13:08:22.088Z,27.80
2022-07-29T13:23:27.269Z,27.60
2022-07-29T13:38:31.655Z,28.10
2022-07-29T13:53:36.101Z,28.30
2022-07-29T14:08:40.977Z,30.50
2022-07-29T14:23:45.417Z,33.60
2022-07-29T14:38:50.684Z,32.00
2022-07-29T14:53:55.176Z,32.40
2022-07-29T15:08:59.569Z,30.70
2022-07-29T15:24:04.483Z,30.10
2022-07-29T15:39:08.840Z,35.40
2022-07-29T15:54:13.364Z,34.80
2022-07-29T16:09:18.294Z,36.10
2022-07-29T16:24:23.932Z,35.60
2022-07-29T16:39:28.377Z,33.30
2022-07-29T16:54:32.856Z,33.80
2022-07-29T17:09:37.403Z,34.40
2022-07-29T17:24:42.445Z,34.30
2022-07-29T17:39:47.031Z,33.30
2022-07-29T17:54:51.527Z,32.90
2022-07-29T18:10:00.283Z,32.40
2022-07-29T18:25:05.645Z,31.80
2022-07-29T18:40:11.696Z,30.80
2022-07-29T18:55:16.161Z,30.10
2022-07-29T19:10:20.633Z,29.80
2022-07-29T19:25:25.396Z,29.50
2022-07-29T19:40:30.460Z,29.20
2022-07-29T19:55:35.089Z,29.10
2022-07-29T20:10:39.487Z,28.80
2022-07-29T20:25:44.347Z,28.70
2022-07-29T20:40:49.644Z,28.50
2022-07-29T20:55:54.956Z,28.30
2022-07-29T21:10:59.372Z,28.10
2022-07-29T21:26:04.085Z,27.80
2022-07-29T21:41:10.690Z,27.70
2022-07-29T21:56:15.284Z,27.50
2022-07-29T22:11:22.378Z,27.40
2022-07-29T22:26:26.765Z,27.20
2022-07-29T22:41:31.173Z,27.10
2022-07-29T22:56:35.887Z,26.80
2022-07-29T23:11:40.533Z,26.50
2022-07-29T23:26:44.976Z,26.70
2022-07-29T23:41:49.355Z,26.40
2022-07-29T23:56:53.758Z,26.60
